createdAt,value
2022-11-06T00:01:55.299Z,87.16
2022-11-06T00:04:21.939Z,86.76
2022-11-06T00:06:48.518Z,86.63
2022-11-06T00:09:18.943Z,86.74
2022-11-06T00:11:46.406Z,87.01
2022-11-06T00:14:16.623Z,86.37
2022-11-06T00:16:44.230Z,86.98
2022-11-06T00:19:11.682Z,86.84
2022-11-06T00:21:38.772Z,86.60
2022-11-06T00:24:07.556Z,86.86
2022-11-06T00:26:34.984Z,86.76
2022-11-06T00:29:02.799Z,86.79
2022-11-06T00:31:35.838Z,86.74
2022-11-06T00:34:03.727Z,86.28
2022-11-06T00:36:31.345Z,86.71
2022-11-06T00:38:59.129Z,86.56
2022-11-06T00:41:26.872Z,86.13
2022-11-06T00:43:58.454Z,86.18
2022-11-06T00:46:26.027Z,86.45
2022-11-06T00:48:53.357Z,86.59
2022-11-06T00:51:27.553Z,86.14
2022-11-06T00:54:02.601Z,86.61
2022-11-06T00:56:30.161Z,85.92
2022-11-06T00:58:59.549Z,86.56
2022-11-06T01:01:32.017Z,85.90
2022-11-06T01:04:12.700Z,85.98
2022-11-06T01:06:42.104Z,86.55
2022-11-06T01:09:11.169Z,86.48
2022-11-06T01:12:11.220Z,86.36
2022-11-06T01:14:30.350Z,86.07
2022-11-06T01:16:57.027Z,85.99
2022-11-06T01:19:24.124Z,86.51
2022-11-06T01:21:53.077Z,85.98
2022-11-06T01:24:25.951Z,85.95
2022-11-06T01:27:24.278Z,86.33
2022-11-06T01:29:39.758Z,86.16
2022-11-06T01:32:06.671Z,86.46
2022-11-06T01:34:33.567Z,86.29
2022-11-06T01:37:00.195Z,86.13
2022-11-06T01:39:26.950Z,86.41
2022-11-06T01:41:56.332Z,86.34
2022-11-06T01:44:41.402Z,86.27
2022-11-06T01:47:30.281Z,86.23
2022-11-06T01:50:01.666Z,85.90
2022-11-06T01:52:29.988Z,86.34
2022-11-06T01:55:04.043Z,85.83
2022-11-06T01:57:30.679Z,86.49
2022-11-06T01:59:57.397Z,85.96
2022-11-06T02:02:24.352Z,85.90
2022-11-06T02:04:51.072Z,86.52
2022-11-06T02:07:20.229Z,86.17
2022-11-06T02:09:46.933Z,86.08
2022-11-06T02:12:37.181Z,86.32
2022-11-06T02:15:21.958Z,86.61
2022-11-06T02:18:05.896Z,86.27
2022-11-06T02:20:46.773Z,86.08
2022-11-06T02:23:19.157Z,86.25
2022-11-06T02:26:11.729Z,86.03
2022-11-06T02:28:45.324Z,86.28
2022-11-06T02:31:15.680Z,86.37
2022-11-06T02:33:52.179Z,86.02
2022-11-06T02:36:29.534Z,86.40
2022-11-06T02:39:03.760Z,86.00
2022-11-06T02:41:35.447Z,86.33
2022-11-06T02:44:06.381Z,86.29
2022-11-06T02:46:43.771Z,86.21
2022-11-06T02:49:14.451Z,86.07
2022-11-06T02:51:47.298Z,86.55
2022-11-06T02:54:15.741Z,86.33
2022-11-06T02:56:46.760Z,86.51
2022-11-06T02:59:24.469Z,86.76
2022-11-06T03:01:58.393Z,86.22
2022-11-06T03:04:33.940Z,86.28
2022-11-06T03:07:28.885Z,86.19
2022-11-06T03:09:56.109Z,85.98
2022-11-06T03:12:29.444Z,86.34
2022-11-06T03:15:05.501Z,86.21
2022-11-06T03:18:01.130Z,86.11
2022-11-06T03:20:46.161Z,86.22
2022-11-06T03:23:21.211Z,86.15
2022-11-06T03:25:53.198Z,86.44
2022-11-06T03:28:34.124Z,86.28
2022-11-06T03:31:07.435Z,86.32
2022-11-06T03:33:55.180Z,86.43
2022-11-06T03:36:53.944Z,86.22
2022-11-06T03:39:28.899Z,86.20
2022-11-06T03:42:08.135Z,86.11
2022-11-06T03:44:43.267Z,86.21
2022-11-06T03:47:20.619Z,86.36
2022-11-06T03:49:53.449Z,86.26
2022-11-06T03:52:28.652Z,86.21
2022-11-06T03:55:24.916Z,86.27
2022-11-06T03:57:57.202Z,86.54
2022-11-06T04:00:24.087Z,86.74
2022-11-06T04:03:05.543Z,86.52
2022-11-06T04:05:47.829Z,86.41
2022-11-06T04:08:36.176Z,86.74
2022-11-06T04:11:24.717Z,86.69
2022-11-06T04:14:01.091Z,86.85
2022-11-06T04:16:36.095Z,86.79
2022-11-06T04:19:03.263Z,86.62
2022-11-06T04:21:47.903Z,87.01
2022-11-06T04:24:32.868Z,86.64
2022-11-06T04:27:29.515Z,86.91
2022-11-06T04:30:07.184Z,86.44
2022-11-06T04:33:01.564Z,86.77
2022-11-06T04:35:42.988Z,86.75
2022-11-06T04:38:59.039Z,86.69
2022-11-06T04:41:41.157Z,86.61
2022-11-06T04:44:14.509Z,86.74
2022-11-06T04:46:56.324Z,86.64
2022-11-06T04:49:25.230Z,86.88
2022-11-06T04:51:52.570Z,86.86
2022-11-06T04:54:19.908Z,87.04
2022-11-06T04:56:46.877Z,86.38
2022-11-06T04:59:18.122Z,87.06
2022-11-06T05:01:46.986Z,87.09
2022-11-06T05:04:13.799Z,86.90
2022-11-06T05:06:40.403Z,87.27
2022-11-06T05:09:06.992Z,86.68
2022-11-06T05:11:33.560Z,86.79
2022-11-06T05:14:00.194Z,86.68
2022-11-06T05:16:27.009Z,87.01
2022-11-06T05:18:53.606Z,86.69
2022-11-06T05:21:38.840Z,87.08
2022-11-06T05:24:05.983Z,87.04
2022-11-06T05:26:32.857Z,86.80
2022-11-06T05:28:59.476Z,86.81
2022-11-06T05:31:26.634Z,86.93
2022-11-06T05:33:53.240Z,87.13
2022-11-06T05:36:20.198Z,86.98
2022-11-06T05:38:46.729Z,86.95
2022-11-06T05:41:13.294Z,86.90
2022-11-06T05:43:39.976Z,87.22
2022-11-06T05:46:15.022Z,86.79
2022-11-06T05:48:50.679Z,86.49
2022-11-06T05:51:17.315Z,87.12
2022-11-06T05:53:43.871Z,86.88
2022-11-06T05:56:10.467Z,86.77
2022-11-06T05:58:37.080Z,86.75
2022-11-06T06:01:04.408Z,86.95
2022-11-06T06:03:30.994Z,86.92
2022-11-06T06:05:57.648Z,86.65
2022-11-06T06:08:24.169Z,86.60
2022-11-06T06:10:51.032Z,86.76
2022-11-06T06:13:17.678Z,86.82
2022-11-06T06:15:44.962Z,87.08
2022-11-06T06:18:12.137Z,86.95
2022-11-06T06:20:39.144Z,86.83
2022-11-06T06:23:09.294Z,86.94
2022-11-06T06:25:36.377Z,86.84
2022-11-06T06:28:02.974Z,86.90
2022-11-06T06:30:29.620Z,86.75
2022-11-06T06:32:56.189Z,86.98
2022-11-06T06:35:22.891Z,86.89
2022-11-06T06:37:55.100Z,86.92
2022-11-06T06:40:23.172Z,86.99
2022-11-06T06:42:49.848Z,86.92
2022-11-06T06:45:17.013Z,87.02
2022-11-06T06:47:43.619Z,86.75
2022-11-06T06:50:10.813Z,86.90
2022-11-06T06:52:37.374Z,86.88
2022-11-06T06:55:04.748Z,86.88
2022-11-06T06:57:31.491Z,86.83
2022-11-06T06:59:58.035Z,86.90
2022-11-06T07:02:24.720Z,87.02
2022-11-06T07:04:51.327Z,86.77
2022-11-06T07:07:17.916Z,86.95
2022-11-06T07:09:44.534Z,86.72
2022-11-06T07:12:11.118Z,87.09
2022-11-06T07:14:37.664Z,86.91
2022-11-06T07:17:04.203Z,86.96
2022-11-06T07:19:30.777Z,86.98
2022-11-06T07:21:57.406Z,86.93
2022-11-06T07:24:23.966Z,87.36
2022-11-06T07:26:50.545Z,87.28
2022-11-06T07:29:17.320Z,87.41
2022-11-06T07:31:43.888Z,87.14
2022-11-06T07:34:10.541Z,87.25
2022-11-06T07:36:37.127Z,87.17
2022-11-06T07:39:03.924Z,87.28
2022-11-06T07:41:30.494Z,87.20
2022-11-06T07:43:57.057Z,87.32
2022-11-06T07:46:23.716Z,86.79
2022-11-06T07:48:50.301Z,87.20
2022-11-06T07:51:16.983Z,87.21
2022-11-06T07:53:43.551Z,87.19
2022-11-06T07:56:10.984Z,87.09
2022-11-06T07:58:38.709Z,86.82
2022-11-06T08:01:05.980Z,87.01
2022-11-06T08:03:34.310Z,86.90
2022-11-06T08:06:04.078Z,86.87
2022-11-06T08:08:31.415Z,87.22
2022-11-06T08:11:09.723Z,87.05
2022-11-06T08:13:36.764Z,86.86
2022-11-06T08:16:08.167Z,86.58
2022-11-06T08:18:35.117Z,87.12
2022-11-06T08:21:02.076Z,87.07
2022-11-06T08:23:29.262Z,86.49
2022-11-06T08:26:01.931Z,86.50
2022-11-06T08:28:29.421Z,86.63
2022-11-06T08:30:56.142Z,86.82
2022-11-06T08:33:23.504Z,86.89
2022-11-06T08:35:50.204Z,86.60
2022-11-06T08:38:17.139Z,86.62
2022-11-06T08:40:46.054Z,86.70
2022-11-06T08:43:15.023Z,86.56
2022-11-06T08:45:43.505Z,86.29
2022-11-06T08:48:10.740Z,86.66
2022-11-06T08:50:40.208Z,86.49
2022-11-06T08:53:07.464Z,86.02
2022-11-06T08:55:35.523Z,86.90
2022-11-06T08:58:02.875Z,86.45
2022-11-06T09:00:30.146Z,86.49
2022-11-06T09:03:01.396Z,87.07
2022-11-06T09:05:31.319Z,86.19
2022-11-06T09:07:58.760Z,86.46
2022-11-06T09:10:26.519Z,86.68
2022-11-06T09:12:58.918Z,86.81
2022-11-06T09:15:28.716Z,85.92
2022-11-06T09:17:55.284Z,86.40
2022-11-06T09:20:24.842Z,86.35
2022-11-06T09:22:52.091Z,86.07
2022-11-06T09:25:21.333Z,86.23
2022-11-06T09:27:54.456Z,85.89
2022-11-06T09:30:26.681Z,86.22
2022-11-06T09:32:56.066Z,86.37
2022-11-06T09:35:24.591Z,85.60
2022-11-06T09:37:51.696Z,86.13
2022-11-06T09:40:34.081Z,85.92
2022-11-06T09:43:08.988Z,85.65
2022-11-06T09:45:39.371Z,85.85
2022-11-06T09:48:29.361Z,85.90
2022-11-06T09:51:25.046Z,85.51
2022-11-06T09:54:03.453Z,85.73
2022-11-06T09:56:37.067Z,85.61
2022-11-06T09:59:14.152Z,85.45
2022-11-06T10:01:46.329Z,85.43
2022-11-06T10:04:35.502Z,84.82
2022-11-06T10:07:08.053Z,84.54
2022-11-06T10:09:36.752Z,84.39
2022-11-06T10:12:13.567Z,84.17
2022-11-06T10:15:18.124Z,84.32
2022-11-06T10:18:08.987Z,84.29
2022-11-06T10:21:02.211Z,84.02
2022-11-06T10:23:37.495Z,83.65
2022-11-06T10:26:22.165Z,83.70
2022-11-06T10:29:45.642Z,83.79
2022-11-06T10:32:12.339Z,83.53
2022-11-06T10:34:49.630Z,84.03
2022-11-06T10:37:26.537Z,83.34
2022-11-06T10:39:55.163Z,83.97
2022-11-06T10:42:55.750Z,83.67
2022-11-06T10:45:23.880Z,83.37
2022-11-06T10:48:05.825Z,83.11
2022-11-06T10:50:46.756Z,83.38
2022-11-06T10:53:31.225Z,83.50
2022-11-06T10:56:11.410Z,83.52
2022-11-06T10:58:38.709Z,82.89
2022-11-06T11:01:09.077Z,82.90
2022-11-06T11:03:39.910Z,82.99
2022-11-06T11:06:06.650Z,82.55
2022-11-06T11:08:39.872Z,82.76
2022-11-06T11:11:15.547Z,82.85
2022-11-06T11:14:05.286Z,82.51
2022-11-06T11:16:39.816Z,82.90
2022-11-06T11:19:25.271Z,82.39
2022-11-06T11:22:03.159Z,82.31
2022-11-06T11:24:29.983Z,82.58
2022-11-06T11:27:02.628Z,82.64
2022-11-06T11:29:41.640Z,82.12
2022-11-06T11:32:08.657Z,82.25
2022-11-06T11:34:47.738Z,81.71
2022-11-06T11:37:33.368Z,82.17
2022-11-06T11:40:18.549Z,81.94
2022-11-06T11:42:45.286Z,81.71
2022-11-06T11:45:15.488Z,81.97
2022-11-06T11:47:48.331Z,81.82
2022-11-06T11:50:18.182Z,81.76
2022-11-06T11:52:51.892Z,81.48
2022-11-06T11:55:23.482Z,81.43
2022-11-06T11:57:53.166Z,81.34
2022-11-06T12:00:21.769Z,81.33
2022-11-06T12:03:03.341Z,81.22
2022-11-06T12:05:41.501Z,81.08
2022-11-06T12:08:21.916Z,80.82
2022-11-06T12:10:49.880Z,81.26
2022-11-06T12:13:20.399Z,81.10
2022-11-06T12:15:49.581Z,81.27
2022-11-06T12:18:21.633Z,81.23
2022-11-06T12:21:05.278Z,81.77
2022-11-06T12:23:56.146Z,81.85
2022-11-06T12:26:53.821Z,81.20
2022-11-06T12:29:32.917Z,81.47
2022-11-06T12:32:13.019Z,81.50
2022-11-06T12:34:53.369Z,81.51
2022-11-06T12:37:57.511Z,81.94
2022-11-06T12:40:30.676Z,81.34
2022-11-06T12:43:11.473Z,82.01
2022-11-06T12:46:01.965Z,81.52
2022-11-06T12:48:37.515Z,81.96
2022-11-06T12:51:28.296Z,82.32
2022-11-06T12:54:08.477Z,81.81
2022-11-06T12:57:12.030Z,82.20
2022-11-06T13:00:13.770Z,82.11
2022-11-06T13:02:49.038Z,82.71
2022-11-06T13:05:30.194Z,82.41
2022-11-06T13:07:56.694Z,82.15
2022-11-06T13:11:03.490Z,83.01
2022-11-06T13:13:54.633Z,83.10
2022-11-06T13:16:50.599Z,82.86
2022-11-06T13:19:22.878Z,83.12
2022-11-06T13:21:52.517Z,83.00
2022-11-06T13:24:35.183Z,83.49
2022-11-06T13:27:31.374Z,83.30
2022-11-06T13:30:03.963Z,83.72
2022-11-06T13:32:36.163Z,83.67
2022-11-06T13:35:04.104Z,83.52
2022-11-06T13:37:46.009Z,83.56
2022-11-06T13:40:32.794Z,83.63
2022-11-06T13:43:22.228Z,83.38
2022-11-06T13:46:01.400Z,83.08
2022-11-06T13:48:37.450Z,83.62
2022-11-06T13:51:14.098Z,83.20
2022-11-06T13:54:00.209Z,83.37
2022-11-06T13:56:57.723Z,83.91
2022-11-06T13:59:43.040Z,83.71
2022-11-06T14:02:20.765Z,83.83
2022-11-06T14:05:08.800Z,83.82
2022-11-06T14:07:36.763Z,83.97
2022-11-06T14:10:07.012Z,84.20
2022-11-06T14:12:34.079Z,83.92
2022-11-06T14:15:19.267Z,84.14
2022-11-06T14:18:00.399Z,83.58
2022-11-06T14:20:38.583Z,84.04
2022-11-06T14:23:31.743Z,83.91
2022-11-06T14:26:04.574Z,83.92
2022-11-06T14:28:34.704Z,84.10
2022-11-06T14:31:12.378Z,83.59
2022-11-06T14:33:40.619Z,83.92
2022-11-06T14:36:25.232Z,83.91
2022-11-06T14:38:55.168Z,83.74
2022-11-06T14:41:33.790Z,83.88
2022-11-06T14:44:34.692Z,84.02
2022-11-06T14:47:05.296Z,84.25
2022-11-06T14:49:46.454Z,84.05
2022-11-06T14:52:15.812Z,83.72
2022-11-06T14:55:04.464Z,84.13
2022-11-06T14:57:42.078Z,84.32
2022-11-06T15:00:16.059Z,83.99
2022-11-06T15:02:43.726Z,84.40
2022-11-06T15:05:19.395Z,83.96
2022-11-06T15:08:05.683Z,83.95
2022-11-06T15:10:44.943Z,84.22
2022-11-06T15:13:32.872Z,84.51
2022-11-06T15:16:05.092Z,84.28
2022-11-06T15:18:35.867Z,83.89
2022-11-06T15:21:07.426Z,84.25
2022-11-06T15:23:50.405Z,84.07
2022-11-06T15:26:33.311Z,83.95
2022-11-06T15:29:11.820Z,84.34
2022-11-06T15:31:39.472Z,84.20
2022-11-06T15:34:14.144Z,84.16
2022-11-06T15:36:43.697Z,84.02
2022-11-06T15:39:26.425Z,84.01
2022-11-06T15:41:52.988Z,83.79
2022-11-06T15:44:22.195Z,83.99
2022-11-06T15:46:59.429Z,84.21
2022-11-06T15:49:26.530Z,83.78
2022-11-06T15:52:01.556Z,84.14
2022-11-06T15:54:43.904Z,83.91
2022-11-06T15:57:24.510Z,83.90
2022-11-06T15:59:51.179Z,84.15
2022-11-06T16:02:22.774Z,84.10
2022-11-06T16:04:50.340Z,84.27
2022-11-06T16:07:19.268Z,83.79
2022-11-06T16:09:46.745Z,83.84
2022-11-06T16:12:15.785Z,84.30
2022-11-06T16:14:46.703Z,84.01
2022-11-06T16:17:27.115Z,83.80
2022-11-06T16:19:57.126Z,83.92
2022-11-06T16:22:32.335Z,83.91
2022-11-06T16:25:04.342Z,83.89
2022-11-06T16:27:41.813Z,84.10
2022-11-06T16:30:25.125Z,83.93
2022-11-06T16:32:52.668Z,83.85
2022-11-06T16:35:34.530Z,84.21
2022-11-06T16:38:41.938Z,84.09
2022-11-06T16:41:10.753Z,84.40
2022-11-06T16:43:38.051Z,84.02
2022-11-06T16:46:10.172Z,84.13
2022-11-06T16:48:41.727Z,84.19
2022-11-06T16:51:11.948Z,84.06
2022-11-06T16:53:55.511Z,84.42
2022-11-06T16:56:30.603Z,83.84
2022-11-06T16:59:08.350Z,84.06
2022-11-06T17:01:41.078Z,84.23
2022-11-06T17:04:19.700Z,83.80
2022-11-06T17:06:46.772Z,83.84
2022-11-06T17:09:22.506Z,83.94
2022-11-06T17:11:57.154Z,84.53
2022-11-06T17:14:24.712Z,84.44
2022-11-06T17:16:57.861Z,84.70
2022-11-06T17:19:28.526Z,84.07
2022-11-06T17:22:00.561Z,84.46
2022-11-06T17:24:37.664Z,84.49
2022-11-06T17:27:07.663Z,84.34
2022-11-06T17:29:38.392Z,84.32
2022-11-06T17:32:08.107Z,84.11
2022-11-06T17:34:34.748Z,84.17
2022-11-06T17:37:03.784Z,84.60
2022-11-06T17:39:31.442Z,84.28
2022-11-06T17:42:01.113Z,84.76
2022-11-06T17:44:27.920Z,84.45
2022-11-06T17:46:54.484Z,84.76
2022-11-06T17:49:21.032Z,85.02
2022-11-06T17:51:53.292Z,84.91
2022-11-06T17:54:26.244Z,85.02
2022-11-06T17:56:54.517Z,84.50
2022-11-06T17:59:24.259Z,84.98
2022-11-06T18:01:54.737Z,84.25
2022-11-06T18:04:23.754Z,84.92
2022-11-06T18:06:54.680Z,84.99
2022-11-06T18:09:24.220Z,85.11
2022-11-06T18:11:52.041Z,85.21
2022-11-06T18:14:19.462Z,84.75
2022-11-06T18:16:46.436Z,84.96
2022-11-06T18:19:17.986Z,85.24
2022-11-06T18:21:44.599Z,85.13
2022-11-06T18:24:11.304Z,84.83
2022-11-06T18:26:44.839Z,85.12
2022-11-06T18:29:12.808Z,84.87
2022-11-06T18:31:39.580Z,85.23
2022-11-06T18:34:06.411Z,85.26
2022-11-06T18:36:35.093Z,85.14
2022-11-06T18:39:01.661Z,85.16
2022-11-06T18:41:29.870Z,85.40
2022-11-06T18:43:57.749Z,84.53
2022-11-06T18:46:26.928Z,85.38
2022-11-06T18:48:55.190Z,85.15
2022-11-06T18:51:34.579Z,85.41
2022-11-06T18:54:05.043Z,85.78
2022-11-06T18:56:33.081Z,85.51
2022-11-06T18:58:59.972Z,85.78
2022-11-06T19:01:26.714Z,85.11
2022-11-06T19:03:53.659Z,85.86
2022-11-06T19:06:21.186Z,85.80
2022-11-06T19:08:49.043Z,85.48
2022-11-06T19:11:17.605Z,85.48
2022-11-06T19:13:47.877Z,85.33
2022-11-06T19:16:20.893Z,85.23
2022-11-06T19:21:29.748Z,85.25
2022-11-06T19:24:03.501Z,85.84
2022-11-06T19:26:32.448Z,85.44
2022-11-06T19:29:00.195Z,86.17
2022-11-06T19:31:30.354Z,85.89
2022-11-06T19:34:00.796Z,85.83
2022-11-06T19:36:28.122Z,85.80
2022-11-06T19:39:14.156Z,85.73
2022-11-06T19:41:44.013Z,86.00
2022-11-06T19:44:10.989Z,86.23
2022-11-06T19:46:37.683Z,86.26
2022-11-06T19:49:10.574Z,86.02
2022-11-06T19:51:40.261Z,86.01
2022-11-06T19:54:07.747Z,86.10
2022-11-06T19:56:34.495Z,86.30
2022-11-06T19:59:02.140Z,85.55
2022-11-06T20:01:28.964Z,85.85
2022-11-06T20:03:55.633Z,86.05
2022-11-06T20:06:25.435Z,85.81
2022-11-06T20:08:52.117Z,85.77
2022-11-06T20:11:21.056Z,86.25
2022-11-06T20:13:48.052Z,86.10
2022-11-06T20:16:17.788Z,85.86
2022-11-06T20:18:53.166Z,85.76
2022-11-06T20:21:22.973Z,86.67
2022-11-06T20:23:50.131Z,85.97
2022-11-06T20:26:19.282Z,86.31
2022-11-06T20:28:49.098Z,86.14
2022-11-06T20:31:19.784Z,86.03
2022-11-06T20:33:52.695Z,86.29
2022-11-06T20:36:27.445Z,85.88
2022-11-06T20:38:56.927Z,85.88
2022-11-06T20:41:24.811Z,86.34
2022-11-06T20:43:52.602Z,86.04
2022-11-06T20:46:23.525Z,86.17
2022-11-06T20:48:50.633Z,86.63
2022-11-06T20:51:22.511Z,86.59
2022-11-06T20:53:50.788Z,86.52
2022-11-06T20:56:20.897Z,86.47
2022-11-06T20:58:50.959Z,86.20
2022-11-06T21:01:20.456Z,86.62
2022-11-06T21:03:49.637Z,86.64
2022-11-06T21:06:17.833Z,86.66
2022-11-06T21:08:45.085Z,86.10
2022-11-06T21:11:20.695Z,86.30
2022-11-06T21:13:49.557Z,86.38
2022-11-06T21:16:22.494Z,86.18
2022-11-06T21:18:49.092Z,86.39
2022-11-06T21:21:20.824Z,86.78
2022-11-06T21:23:51.473Z,86.40
2022-11-06T21:26:20.903Z,86.18
2022-11-06T21:28:48.123Z,86.74
2022-11-06T21:31:26.889Z,86.96
2022-11-06T21:33:55.912Z,86.63
2022-11-06T21:36:41.866Z,86.68
2022-11-06T21:39:12.366Z,86.84
2022-11-06T21:41:39.160Z,86.65
2022-11-06T21:44:07.598Z,86.59
2022-11-06T21:46:34.510Z,86.56
2022-11-06T21:49:01.312Z,86.58
2022-11-06T21:51:30.080Z,86.23
2022-11-06T21:54:16.513Z,86.95
2022-11-06T21:56:44.025Z,87.17
2022-11-06T21:59:15.795Z,86.80
2022-11-06T22:01:43.267Z,86.80
2022-11-06T22:04:10.302Z,87.02
2022-11-06T22:06:41.403Z,87.18
2022-11-06T22:09:09.344Z,86.63
2022-11-06T22:11:38.125Z,86.73
2022-11-06T22:14:08.870Z,86.61
2022-11-06T22:16:38.676Z,87.10
2022-11-06T22:19:06.978Z,87.64
2022-11-06T22:21:38.048Z,86.95
2022-11-06T22:24:05.451Z,87.12
2022-11-06T22:26:34.187Z,86.89
2022-11-06T22:29:07.574Z,87.30
2022-11-06T22:31:34.557Z,86.99
2022-11-06T22:34:01.187Z,87.54
2022-11-06T22:36:28.027Z,86.98
2022-11-06T22:38:58.997Z,87.18
2022-11-06T22:41:25.796Z,87.31
2022-11-06T22:43:57.152Z,87.06
2022-11-06T22:46:24.148Z,87.11
2022-11-06T22:48:52.025Z,87.40
2022-11-06T22:51:21.948Z,87.04
2022-11-06T22:53:50.406Z,87.07
2022-11-06T22:56:17.737Z,87.03
2022-11-06T22:58:44.954Z,86.97
2022-11-06T23:01:14.806Z,87.08
2022-11-06T23:03:41.424Z,87.31
2022-11-06T23:06:09.759Z,87.92
2022-11-06T23:08:44.184Z,87.77
2022-11-06T23:11:13.652Z,87.25
2022-11-06T23:13:41.820Z,87.57
2022-11-06T23:16:11.583Z,87.38
2022-11-06T23:18:43.936Z,87.64
2022-11-06T23:21:15.402Z,87.44
2022-11-06T23:23:44.327Z,87.19
2022-11-06T23:26:13.251Z,87.42
2022-11-06T23:28:40.038Z,87.66
2022-11-06T23:31:11.650Z,87.87
2022-11-06T23:33:38.321Z,87.53
2022-11-06T23:36:11.916Z,87.16
2022-11-06T23:38:42.514Z,87.95
2022-11-06T23:41:30.585Z,87.13
2022-11-06T23:43:58.078Z,87.40
2022-11-06T23:46:30.505Z,87.23
2022-11-06T23:49:02.047Z,87.58
2022-11-06T23:51:28.892Z,87.69
2022-11-06T23:53:55.747Z,87.53
2022-11-06T23:56:24.539Z,87.64
2022-11-06T23:58:51.215Z,87.77
